sensor_id;sensor_type;location;lat;lon;timestamp;pressure;altitude;pressure_sealevel;temperature
35582;BMP180;21687;48.900;9.188;2022-08-01T00:01:27;98497.00;;;20.40
35582;BMP180;21687;48.900;9.188;2022-08-01T00:04:13;98505.00;;;20.40
35582;BMP180;21687;48.900;9.188;2022-08-01T00:07:00;98507.00;;;20.20
35582;BMP180;21687;48.900;9.188;2022-08-01T00:09:46;98504.00;;;20.10
35582;BMP180;21687;48.900;9.188;2022-08-01T00:12:33;98505.00;;;20.10
35582;BMP180;21687;48.900;9.188;2022-08-01T00:15:19;98503.00;;;20.10
35582;BMP180;21687;48.900;9.188;2022-08-01T00:18:06;98496.00;;;20.20
35582;BMP180;21687;48.900;9.188;2022-08-01T00:20:52;98496.00;;;20.20
35582;BMP180;21687;48.900;9.188;2022-08-01T00:23:39;98500.00;;;20.10
35582;BMP180;21687;48.900;9.188;2022-08-01T00:26:25;98496.00;;;20.20
35582;BMP180;21687;48.900;9.188;2022-08-01T00:29:12;98489.00;;;20.20
35582;BMP180;21687;48.900;9.188;2022-08-01T00:31:58;98494.00;;;20.30
35582;BMP180;21687;48.900;9.188;2022-08-01T00:34:45;98495.00;;;20.20
35582;BMP180;21687;48.900;9.188;2022-08-01T00:37:31;98504.00;;;20.20
35582;BMP180;21687;48.900;9.188;2022-08-01T00:40:18;98502.00;;;20.10
35582;BMP180;21687;48.900;9.188;2022-08-01T00:43:04;98504.00;;;20.00
35582;BMP180;21687;48.900;9.188;2022-08-01T00:45:51;98510.00;;;20.00
35582;BMP180;21687;48.900;9.188;2022-08-01T00:48:37;98507.00;;;20.00
35582;BMP180;21687;48.900;9.188;2022-08-01T00:51:24;98510.00;;;20.10
35582;BMP180;21687;48.900;9.188;2022-08-01T00:54:11;98509.00;;;20.10
35582;BMP180;21687;48.900;9.188;2022-08-01T00:56:58;98509.00;;;20.10
35582;BMP180;21687;48.900;9.188;2022-08-01T00:59:45;98519.00;;;20.00
35582;BMP180;21687;48.900;9.188;2022-08-01T01:02:32;98507.00;;;20.10
35582;BMP180;21687;48.900;9.188;2022-08-01T01:05:19;98508.00;;;20.10
35582;BMP180;21687;48.900;9.188;2022-08-01T01:08:16;98512.00;;;20.00
35582;BMP180;21687;48.900;9.188;2022-08-01T01:11:32;98515.00;;;20.00
35582;BMP180;21687;48.900;9.188;2022-08-01T01:14:37;98513.00;;;19.90
35582;BMP180;21687;48.900;9.188;2022-08-01T01:17:37;98519.00;;;19.80
35582;BMP180;21687;48.900;9.188;2022-08-01T01:20:31;98515.00;;;19.70
35582;BMP180;21687;48.900;9.188;2022-08-01T01:23:50;98523.00;;;19.80
35582;BMP180;21687;48.900;9.188;2022-08-01T01:29:40;98517.00;;;19.60
35582;BMP180;21687;48.900;9.188;2022-08-01T01:32:38;98511.00;;;19.70
35582;BMP180;21687;48.900;9.188;2022-08-01T01:35:28;98519.00;;;19.70
35582;BMP180;21687;48.900;9.188;2022-08-01T01:38:22;98517.00;;;19.80
35582;BMP180;21687;48.900;9.188;2022-08-01T01:41:12;98514.00;;;19.80
35582;BMP180;21687;48.900;9.188;2022-08-01T01:44:00;98511.00;;;19.80
35582;BMP180;21687;48.900;9.188;2022-08-01T01:46:48;98515.00;;;19.70
35582;BMP180;21687;48.900;9.188;2022-08-01T01:49:36;98519.00;;;19.70
35582;BMP180;21687;48.900;9.188;2022-08-01T01:52:23;98519.00;;;19.60
35582;BMP180;21687;48.900;9.188;2022-08-01T01:55:12;98517.00;;;19.50
35582;BMP180;21687;48.900;9.188;2022-08-01T01:57:59;98527.00;;;19.60
35582;BMP180;21687;48.900;9.188;2022-08-01T02:00:48;98531.00;;;19.50
35582;BMP180;21687;48.900;9.188;2022-08-01T02:03:36;98525.00;;;19.40
35582;BMP180;21687;48.900;9.188;2022-08-01T02:06:26;98519.00;;;19.60
35582;BMP180;21687;48.900;9.188;2022-08-01T02:09:16;98513.00;;;19.30
35582;BMP180;21687;48.900;9.188;2022-08-01T02:12:05;98512.00;;;19.40
35582;BMP180;21687;48.900;9.188;2022-08-01T02:14:53;98518.00;;;19.30
35582;BMP180;21687;48.900;9.188;2022-08-01T02:17:43;98523.00;;;19.20
35582;BMP180;21687;48.900;9.188;2022-08-01T02:20:31;98527.00;;;19.20
35582;BMP180;21687;48.900;9.188;2022-08-01T02:23:20;98537.00;;;19.20
35582;BMP180;21687;48.900;9.188;2022-08-01T02:26:13;98525.00;;;19.10
35582;BMP180;21687;48.900;9.188;2022-08-01T02:29:05;98540.00;;;19.20
35582;BMP180;21687;48.900;9.188;2022-08-01T02:31:54;98530.00;;;19.00
35582;BMP180;21687;48.900;9.188;2022-08-01T02:34:41;98548.00;;;19.00
35582;BMP180;21687;48.900;9.188;2022-08-01T02:37:34;98548.00;;;19.00
35582;BMP180;21687;48.900;9.188;2022-08-01T02:40:22;98546.00;;;18.90
35582;BMP180;21687;48.900;9.188;2022-08-01T02:43:11;98545.00;;;18.80
35582;BMP180;21687;48.900;9.188;2022-08-01T02:46:01;98548.00;;;18.80
35582;BMP180;21687;48.900;9.188;2022-08-01T02:48:51;98546.00;;;18.80
35582;BMP180;21687;48.900;9.188;2022-08-01T02:51:39;98545.00;;;18.90
35582;BMP180;21687;48.900;9.188;2022-08-01T02:54:27;98542.00;;;18.80
35582;BMP180;21687;48.900;9.188;2022-08-01T02:57:17;98546.00;;;18.70
35582;BMP180;21687;48.900;9.188;2022-08-01T03:00:05;98544.00;;;18.60
35582;BMP180;21687;48.900;9.188;2022-08-01T03:02:53;98539.00;;;18.50
35582;BMP180;21687;48.900;9.188;2022-08-01T03:05:43;98544.00;;;18.40
35582;BMP180;21687;48.900;9.188;2022-08-01T03:08:30;98548.00;;;18.40
35582;BMP180;21687;48.900;9.188;2022-08-01T03:11:18;98549.00;;;18.40
35582;BMP180;21687;48.900;9.188;2022-08-01T03:14:07;98538.00;;;18.40
35582;BMP180;21687;48.900;9.188;2022-08-01T03:16:55;98535.00;;;18.20
35582;BMP180;21687;48.900;9.188;2022-08-01T03:19:45;98531.00;;;18.10
35582;BMP180;21687;48.900;9.188;2022-08-01T03:22:33;98545.00;;;18.20
35582;BMP180;21687;48.900;9.188;2022-08-01T03:25:21;98543.00;;;18.30
35582;BMP180;21687;48.900;9.188;2022-08-01T03:28:08;98547.00;;;18.30
35582;BMP180;21687;48.900;9.188;2022-08-01T03:30:59;98541.00;;;18.40
35582;BMP180;21687;48.900;9.188;2022-08-01T03:33:46;98538.00;;;18.20
35582;BMP180;21687;48.900;9.188;2022-08-01T03:36:46;98542.00;;;18.20
35582;BMP180;21687;48.900;9.188;2022-08-01T03:39:37;98544.00;;;18.10
35582;BMP180;21687;48.900;9.188;2022-08-01T03:42:32;98547.00;;;18.00
35582;BMP180;21687;48.900;9.188;2022-08-01T03:45:41;98544.00;;;18.00
35582;BMP180;21687;48.900;9.188;2022-08-01T03:48:31;98552.00;;;17.90
35582;BMP180;21687;48.900;9.188;2022-08-01T03:51:21;98543.00;;;17.90
35582;BMP180;21687;48.900;9.188;2022-08-01T03:54:09;98559.00;;;18.00
35582;BMP180;21687;48.900;9.188;2022-08-01T03:56:58;98560.00;;;17.90
35582;BMP180;21687;48.900;9.188;2022-08-01T03:59:45;98551.00;;;17.90
35582;BMP180;21687;48.900;9.188;2022-08-01T04:02:32;98554.00;;;17.80
35582;BMP180;21687;48.900;9.188;2022-08-01T04:05:19;98550.00;;;17.90
35582;BMP180;21687;48.900;9.188;2022-08-01T04:08:05;98551.00;;;17.90
35582;BMP180;21687;48.900;9.188;2022-08-01T04:10:52;98552.00;;;17.90
35582;BMP180;21687;48.900;9.188;2022-08-01T04:13:38;98556.00;;;18.00
35582;BMP180;21687;48.900;9.188;2022-08-01T04:16:25;98558.00;;;18.10
35582;BMP180;21687;48.900;9.188;2022-08-01T04:19:12;98565.00;;;18.40
35582;BMP180;21687;48.900;9.188;2022-08-01T04:21:59;98559.00;;;18.90
35582;BMP180;21687;48.900;9.188;2022-08-01T04:24:48;98564.00;;;19.30
35582;BMP180;21687;48.900;9.188;2022-08-01T04:27:37;98561.00;;;19.70
35582;BMP180;21687;48.900;9.188;2022-08-01T04:30:31;98568.00;;;20.10
35582;BMP180;21687;48.900;9.188;2022-08-01T04:33:20;98560.00;;;20.50
35582;BMP180;21687;48.900;9.188;2022-08-01T04:36:07;98571.00;;;20.80
35582;BMP180;21687;48.900;9.188;2022-08-01T04:38:59;98563.00;;;21.20
35582;BMP180;21687;48.900;9.188;2022-08-01T04:41:47;98564.00;;;21.60
35582;BMP180;21687;48.900;9.188;2022-08-01T04:44:34;98565.00;;;21.80
35582;BMP180;21687;48.900;9.188;2022-08-01T04:47:21;98562.00;;;22.10
35582;BMP180;21687;48.900;9.188;2022-08-01T04:50:10;98571.00;;;22.40
35582;BMP180;21687;48.900;9.188;2022-08-01T04:52:57;98562.00;;;22.60
35582;BMP180;21687;48.900;9.188;2022-08-01T04:55:46;98562.00;;;22.80
35582;BMP180;21687;48.900;9.188;2022-08-01T04:58:32;98567.00;;;22.80
35582;BMP180;21687;48.900;9.188;2022-08-01T05:01:19;98569.00;;;23.10
35582;BMP180;21687;48.900;9.188;2022-08-01T05:04:05;98573.00;;;23.40
35582;BMP180;21687;48.900;9.188;2022-08-01T05:06:52;98563.00;;;23.60
35582;BMP180;21687;48.900;9.188;2022-08-01T05:09:40;98565.00;;;23.70
35582;BMP180;21687;48.900;9.188;2022-08-01T05:12:32;98561.00;;;23.80
35582;BMP180;21687;48.900;9.188;2022-08-01T05:15:18;98558.00;;;23.90
35582;BMP180;21687;48.900;9.188;2022-08-01T05:18:05;98562.00;;;24.00
35582;BMP180;21687;48.900;9.188;2022-08-01T05:20:51;98555.00;;;24.00
35582;BMP180;21687;48.900;9.188;2022-08-01T05:23:38;98563.00;;;23.90
35582;BMP180;21687;48.900;9.188;2022-08-01T05:26:24;98564.00;;;24.00
35582;BMP180;21687;48.900;9.188;2022-08-01T05:29:11;98571.00;;;24.30
35582;BMP180;21687;48.900;9.188;2022-08-01T05:31:57;98574.00;;;24.60
35582;BMP180;21687;48.900;9.188;2022-08-01T05:34:45;98577.00;;;24.80
35582;BMP180;21687;48.900;9.188;2022-08-01T05:37:31;98583.00;;;24.60
35582;BMP180;21687;48.900;9.188;2022-08-01T05:40:18;98585.00;;;24.20
35582;BMP180;21687;48.900;9.188;2022-08-01T05:43:05;98581.00;;;23.50
35582;BMP180;21687;48.900;9.188;2022-08-01T05:45:51;98590.00;;;23.10
35582;BMP180;21687;48.900;9.188;2022-08-01T05:48:38;98584.00;;;22.90
35582;BMP180;21687;48.900;9.188;2022-08-01T05:51:24;98589.00;;;22.80
35582;BMP180;21687;48.900;9.188;2022-08-01T05:54:11;98584.00;;;22.70
35582;BMP180;21687;48.900;9.188;2022-08-01T05:56:58;98591.00;;;22.50
35582;BMP180;21687;48.900;9.188;2022-08-01T05:59:47;98589.00;;;22.30
35582;BMP180;21687;48.900;9.188;2022-08-01T06:02:34;98591.00;;;22.30
35582;BMP180;21687;48.900;9.188;2022-08-01T06:05:20;98590.00;;;22.30
35582;BMP180;21687;48.900;9.188;2022-08-01T06:08:07;98595.00;;;22.30
35582;BMP180;21687;48.900;9.188;2022-08-01T06:10:53;98594.00;;;22.50
35582;BMP180;21687;48.900;9.188;2022-08-01T06:13:40;98594.00;;;22.80
35582;BMP180;21687;48.900;9.188;2022-08-01T06:16:26;98593.00;;;23.10
35582;BMP180;21687;48.900;9.188;2022-08-01T06:19:13;98589.00;;;23.70
35582;BMP180;21687;48.900;9.188;2022-08-01T06:21:59;98597.00;;;24.10
35582;BMP180;21687;48.900;9.188;2022-08-01T06:24:46;98593.00;;;24.70
35582;BMP180;21687;48.900;9.188;2022-08-01T06:27:34;98598.00;;;25.00
35582;BMP180;21687;48.900;9.188;2022-08-01T06:30:21;98599.00;;;25.20
35582;BMP180;21687;48.900;9.188;2022-08-01T06:33:08;98595.00;;;25.60
35582;BMP180;21687;48.900;9.188;2022-08-01T06:35:55;98599.00;;;25.60
35582;BMP180;21687;48.900;9.188;2022-08-01T06:38:41;98599.00;;;25.50
35582;BMP180;21687;48.900;9.188;2022-08-01T06:41:15;98595.00;;;25.30
35582;BMP180;21687;48.900;9.188;2022-08-01T06:43:42;98599.00;;;25.30
35582;BMP180;21687;48.900;9.188;2022-08-01T06:46:08;98601.00;;;25.10
35582;BMP180;21687;48.900;9.188;2022-08-01T06:48:34;98598.00;;;25.30
35582;BMP180;21687;48.900;9.188;2022-08-01T06:51:05;98604.00;;;25.00
35582;BMP180;21687;48.900;9.188;2022-08-01T06:53:37;98605.00;;;25.70
35582;BMP180;21687;48.900;9.188;2022-08-01T06:56:05;98610.00;;;25.50
35582;BMP180;21687;48.900;9.188;2022-08-01T06:58:32;98613.00;;;25.60
35582;BMP180;21687;48.900;9.188;2022-08-01T07:01:00;98615.00;;;25.30
35582;BMP180;21687;48.900;9.188;2022-08-01T07:03:26;98614.00;;;25.00
35582;BMP180;21687;48.900;9.188;2022-08-01T07:05:53;98606.00;;;25.00
35582;BMP180;21687;48.900;9.188;2022-08-01T07:08:19;98610.00;;;25.10
35582;BMP180;21687;48.900;9.188;2022-08-01T07:10:46;98610.00;;;25.60
35582;BMP180;21687;48.900;9.188;2022-08-01T07:13:13;98609.00;;;25.50
35582;BMP180;21687;48.900;9.188;2022-08-01T07:15:40;98605.00;;;25.30
35582;BMP180;21687;48.900;9.188;2022-08-01T07:18:07;98605.00;;;25.20
35582;BMP180;21687;48.900;9.188;2022-08-01T07:20:34;98608.00;;;25.10
35582;BMP180;21687;48.900;9.188;2022-08-01T07:23:00;98609.00;;;25.30
35582;BMP180;21687;48.900;9.188;2022-08-01T07:25:26;98603.00;;;25.40
35582;BMP180;21687;48.900;9.188;2022-08-01T07:27:52;98603.00;;;25.50
35582;BMP180;21687;48.900;9.188;2022-08-01T07:30:19;98611.00;;;25.90
35582;BMP180;21687;48.900;9.188;2022-08-01T07:32:45;98608.00;;;26.50
35582;BMP180;21687;48.900;9.188;2022-08-01T07:35:11;98605.00;;;26.40
35582;BMP180;21687;48.900;9.188;2022-08-01T07:37:37;98607.00;;;26.40
35582;BMP180;21687;48.900;9.188;2022-08-01T07:40:04;98603.00;;;26.70
35582;BMP180;21687;48.900;9.188;2022-08-01T07:42:31;98601.00;;;26.40
35582;BMP180;21687;48.900;9.188;2022-08-01T07:44:58;98609.00;;;25.80
35582;BMP180;21687;48.900;9.188;2022-08-01T07:47:25;98608.00;;;25.50
35582;BMP180;21687;48.900;9.188;2022-08-01T07:49:52;98606.00;;;25.10
35582;BMP180;21687;48.900;9.188;2022-08-01T07:52:24;98605.00;;;25.20
35582;BMP180;21687;48.900;9.188;2022-08-01T07:54:50;98600.00;;;25.20
35582;BMP180;21687;48.900;9.188;2022-08-01T07:57:17;98600.00;;;25.40
35582;BMP180;21687;48.900;9.188;2022-08-01T07:59:43;98605.00;;;25.70
35582;BMP180;21687;48.900;9.188;2022-08-01T08:02:09;98610.00;;;25.70
35582;BMP180;21687;48.900;9.188;2022-08-01T08:04:35;98606.00;;;25.40
35582;BMP180;21687;48.900;9.188;2022-08-01T08:07:02;98603.00;;;25.10
35582;BMP180;21687;48.900;9.188;2022-08-01T08:09:28;98608.00;;;25.40
35582;BMP180;21687;48.900;9.188;2022-08-01T08:11:54;98605.00;;;26.10
35582;BMP180;21687;48.900;9.188;2022-08-01T08:14:21;98608.00;;;26.80
35582;BMP180;21687;48.900;9.188;2022-08-01T08:16:48;98606.00;;;27.20
35582;BMP180;21687;48.900;9.188;2022-08-01T08:19:15;98609.00;;;27.00
35582;BMP180;21687;48.900;9.188;2022-08-01T08:21:41;98603.00;;;27.10
35582;BMP180;21687;48.900;9.188;2022-08-01T08:24:08;98608.00;;;27.20
35582;BMP180;21687;48.900;9.188;2022-08-01T08:26:48;98610.00;;;26.80
35582;BMP180;21687;48.900;9.188;2022-08-01T08:29:15;98606.00;;;26.30
35582;BMP180;21687;48.900;9.188;2022-08-01T08:31:42;98609.00;;;25.60
35582;BMP180;21687;48.900;9.188;2022-08-01T08:34:08;98604.00;;;25.70
35582;BMP180;21687;48.900;9.188;2022-08-01T08:36:35;98599.00;;;25.60
35582;BMP180;21687;48.900;9.188;2022-08-01T08:39:01;98600.00;;;25.90
35582;BMP180;21687;48.900;9.188;2022-08-01T08:41:34;98599.00;;;26.40
35582;BMP180;21687;48.900;9.188;2022-08-01T08:44:04;98599.00;;;26.60
35582;BMP180;21687;48.900;9.188;2022-08-01T08:46:32;98599.00;;;27.20
35582;BMP180;21687;48.900;9.188;2022-08-01T08:49:00;98598.00;;;27.40
35582;BMP180;21687;48.900;9.188;2022-08-01T08:51:30;98603.00;;;27.40
35582;BMP180;21687;48.900;9.188;2022-08-01T08:54:01;98601.00;;;26.70
35582;BMP180;21687;48.900;9.188;2022-08-01T08:56:28;98594.00;;;26.40
35582;BMP180;21687;48.900;9.188;2022-08-01T08:59:01;98605.00;;;26.20
35582;BMP180;21687;48.900;9.188;2022-08-01T09:01:28;98601.00;;;25.80
35582;BMP180;21687;48.900;9.188;2022-08-01T09:03:54;98605.00;;;25.70
35582;BMP180;21687;48.900;9.188;2022-08-01T09:06:21;98606.00;;;25.30
35582;BMP180;21687;48.900;9.188;2022-08-01T09:08:47;98592.00;;;24.90
35582;BMP180;21687;48.900;9.188;2022-08-01T09:11:13;98611.00;;;24.80
35582;BMP180;21687;48.900;9.188;2022-08-01T09:13:39;98611.00;;;24.70
35582;BMP180;21687;48.900;9.188;2022-08-01T09:16:06;98610.00;;;24.70
35582;BMP180;21687;48.900;9.188;2022-08-01T09:18:40;98605.00;;;24.70
35582;BMP180;21687;48.900;9.188;2022-08-01T09:21:16;98602.00;;;25.20
35582;BMP180;21687;48.900;9.188;2022-08-01T09:23:52;98611.00;;;25.40
35582;BMP180;21687;48.900;9.188;2022-08-01T09:26:28;98609.00;;;25.80
35582;BMP180;21687;48.900;9.188;2022-08-01T09:28:56;98607.00;;;25.70
35582;BMP180;21687;48.900;9.188;2022-08-01T09:31:22;98607.00;;;26.10
35582;BMP180;21687;48.900;9.188;2022-08-01T09:36:18;98614.00;;;26.70
35582;BMP180;21687;48.900;9.188;2022-08-01T09:38:44;98610.00;;;26.50
35582;BMP180;21687;48.900;9.188;2022-08-01T09:41:11;98604.00;;;26.40
35582;BMP180;21687;48.900;9.188;2022-08-01T09:43:40;98604.00;;;26.60
35582;BMP180;21687;48.900;9.188;2022-08-01T09:46:16;98615.00;;;27.20
35582;BMP180;21687;48.900;9.188;2022-08-01T09:49:02;98609.00;;;27.40
35582;BMP180;21687;48.900;9.188;2022-08-01T09:51:34;98606.00;;;27.50
35582;BMP180;21687;48.900;9.188;2022-08-01T09:54:02;98604.00;;;27.90
35582;BMP180;21687;48.900;9.188;2022-08-01T09:56:38;98606.00;;;27.70
35582;BMP180;21687;48.900;9.188;2022-08-01T09:59:04;98612.00;;;28.40
35582;BMP180;21687;48.900;9.188;2022-08-01T10:01:45;98606.00;;;27.90
35582;BMP180;21687;48.900;9.188;2022-08-01T10:04:20;98602.00;;;27.20
35582;BMP180;21687;48.900;9.188;2022-08-01T10:06:48;98605.00;;;27.00
35582;BMP180;21687;48.900;9.188;2022-08-01T10:09:30;98599.00;;;27.00
35582;BMP180;21687;48.900;9.188;2022-08-01T10:12:00;98590.00;;;27.50
35582;BMP180;21687;48.900;9.188;2022-08-01T10:14:28;98600.00;;;27.80
35582;BMP180;21687;48.900;9.188;2022-08-01T10:16:59;98593.00;;;27.80
35582;BMP180;21687;48.900;9.188;2022-08-01T10:19:28;98593.00;;;27.80
35582;BMP180;21687;48.900;9.188;2022-08-01T10:21:57;98586.00;;;28.30
35582;BMP180;21687;48.900;9.188;2022-08-01T10:24:26;98584.00;;;28.50
35582;BMP180;21687;48.900;9.188;2022-08-01T10:27:05;98583.00;;;28.70
35582;BMP180;21687;48.900;9.188;2022-08-01T10:29:56;98585.00;;;28.50
35582;BMP180;21687;48.900;9.188;2022-08-01T10:32:23;98587.00;;;27.80
35582;BMP180;21687;48.900;9.188;2022-08-01T10:34:53;98580.00;;;27.90
35582;BMP180;21687;48.900;9.188;2022-08-01T10:37:21;98576.00;;;28.10
35582;BMP180;21687;48.900;9.188;2022-08-01T10:39:48;98574.00;;;28.60
35582;BMP180;21687;48.900;9.188;2022-08-01T10:42:16;98584.00;;;28.80
35582;BMP180;21687;48.900;9.188;2022-08-01T10:44:43;98586.00;;;28.70
35582;BMP180;21687;48.900;9.188;2022-08-01T10:47:14;98584.00;;;28.40
35582;BMP180;21687;48.900;9.188;2022-08-01T10:50:11;98586.00;;;28.40
35582;BMP180;21687;48.900;9.188;2022-08-01T10:52:37;98587.00;;;28.40
35582;BMP180;21687;48.900;9.188;2022-08-01T10:55:08;98585.00;;;28.40
35582;BMP180;21687;48.900;9.188;2022-08-01T10:57:49;98580.00;;;28.70
35582;BMP180;21687;48.900;9.188;2022-08-01T11:00:19;98575.00;;;28.80
35582;BMP180;21687;48.900;9.188;2022-08-01T11:03:02;98567.00;;;29.20
35582;BMP180;21687;48.900;9.188;2022-08-01T11:05:35;98571.00;;;29.10
35582;BMP180;21687;48.900;9.188;2022-08-01T11:08:20;98574.00;;;28.80
35582;BMP180;21687;48.900;9.188;2022-08-01T11:10:47;98563.00;;;28.40
35582;BMP180;21687;48.900;9.188;2022-08-01T11:13:14;98565.00;;;28.70
35582;BMP180;21687;48.900;9.188;2022-08-01T11:15:41;98563.00;;;28.40
35582;BMP180;21687;48.900;9.188;2022-08-01T11:21:01;98548.00;;;28.90
35582;BMP180;21687;48.900;9.188;2022-08-01T11:23:29;98550.00;;;29.00
35582;BMP180;21687;48.900;9.188;2022-08-01T11:28:27;98549.00;;;29.00
35582;BMP180;21687;48.900;9.188;2022-08-01T11:38:40;98540.00;;;28.50
35582;BMP180;21687;48.900;9.188;2022-08-01T11:41:28;98539.00;;;28.60
35582;BMP180;21687;48.900;9.188;2022-08-01T11:46:48;98526.00;;;28.10
35582;BMP180;21687;48.900;9.188;2022-08-01T11:49:26;98531.00;;;28.60
35582;BMP180;21687;48.900;9.188;2022-08-01T11:54:45;98525.00;;;29.00
35582;BMP180;21687;48.900;9.188;2022-08-01T11:57:19;98522.00;;;29.20
35582;BMP180;21687;48.900;9.188;2022-08-01T11:59:48;98514.00;;;29.20
35582;BMP180;21687;48.900;9.188;2022-08-01T12:05:13;98523.00;;;28.90
35582;BMP180;21687;48.900;9.188;2022-08-01T12:07:41;98524.00;;;28.50
35582;BMP180;21687;48.900;9.188;2022-08-01T12:12:41;98502.00;;;28.20
35582;BMP180;21687;48.900;9.188;2022-08-01T12:15:09;98514.00;;;27.90
35582;BMP180;21687;48.900;9.188;2022-08-01T12:20:09;98507.00;;;28.40
35582;BMP180;21687;48.900;9.188;2022-08-01T12:22:36;98507.00;;;28.00
35582;BMP180;21687;48.900;9.188;2022-08-01T12:25:16;98509.00;;;28.00
35582;BMP180;21687;48.900;9.188;2022-08-01T12:27:45;98510.00;;;28.20
35582;BMP180;21687;48.900;9.188;2022-08-01T12:30:21;98502.00;;;27.90
35582;BMP180;21687;48.900;9.188;2022-08-01T12:32:54;98509.00;;;27.90
35582;BMP180;21687;48.900;9.188;2022-08-01T12:35:23;98506.00;;;27.90
35582;BMP180;21687;48.900;9.188;2022-08-01T12:40:23;98508.00;;;27.80
35582;BMP180;21687;48.900;9.188;2022-08-01T12:42:55;98499.00;;;28.00
35582;BMP180;21687;48.900;9.188;2022-08-01T12:45:26;98493.00;;;28.10
35582;BMP180;21687;48.900;9.188;2022-08-01T12:47:54;98491.00;;;28.00
35582;BMP180;21687;48.900;9.188;2022-08-01T12:50:22;98501.00;;;28.30
35582;BMP180;21687;48.900;9.188;2022-08-01T12:52:50;98494.00;;;28.20
35582;BMP180;21687;48.900;9.188;2022-08-01T12:55:18;98487.00;;;28.30
35582;BMP180;21687;48.900;9.188;2022-08-01T12:57:49;98492.00;;;28.20
35582;BMP180;21687;48.900;9.188;2022-08-01T13:02:45;98502.00;;;28.30
35582;BMP180;21687;48.900;9.188;2022-08-01T13:05:12;98505.00;;;28.20
35582;BMP180;21687;48.900;9.188;2022-08-01T13:07:50;98492.00;;;28.20
35582;BMP180;21687;48.900;9.188;2022-08-01T13:10:29;98488.00;;;28.30
35582;BMP180;21687;48.900;9.188;2022-08-01T13:12:57;98502.00;;;28.40
35582;BMP180;21687;48.900;9.188;2022-08-01T13:15:28;98493.00;;;28.20
35582;BMP180;21687;48.900;9.188;2022-08-01T13:17:57;98486.00;;;28.00
35582;BMP180;21687;48.900;9.188;2022-08-01T13:20:27;98479.00;;;27.80
35582;BMP180;21687;48.900;9.188;2022-08-01T13:22:54;98469.00;;;28.30
35582;BMP180;21687;48.900;9.188;2022-08-01T13:25:22;98490.00;;;28.70
35582;BMP180;21687;48.900;9.188;2022-08-01T13:27:48;98492.00;;;28.20
35582;BMP180;21687;48.900;9.188;2022-08-01T13:30:19;98492.00;;;28.20
35582;BMP180;21687;48.900;9.188;2022-08-01T13:32:59;98489.00;;;28.40
35582;BMP180;21687;48.900;9.188;2022-08-01T13:35:26;98483.00;;;28.50
35582;BMP180;21687;48.900;9.188;2022-08-01T13:37:53;98481.00;;;28.50
35582;BMP180;21687;48.900;9.188;2022-08-01T13:40:27;98496.00;;;28.20
35582;BMP180;21687;48.900;9.188;2022-08-01T13:42:56;98491.00;;;28.10
35582;BMP180;21687;48.900;9.188;2022-08-01T13:45:23;98487.00;;;28.20
35582;BMP180;21687;48.900;9.188;2022-08-01T13:47:49;98480.00;;;28.40
35582;BMP180;21687;48.900;9.188;2022-08-01T13:50:15;98481.00;;;28.30
35582;BMP180;21687;48.900;9.188;2022-08-01T13:52:42;98473.00;;;28.70
35582;BMP180;21687;48.900;9.188;2022-08-01T13:55:08;98477.00;;;28.90
35582;BMP180;21687;48.900;9.188;2022-08-01T13:57:34;98480.00;;;28.40
35582;BMP180;21687;48.900;9.188;2022-08-01T14:00:01;98472.00;;;28.70
35582;BMP180;21687;48.900;9.188;2022-08-01T14:02:27;98475.00;;;29.10
35582;BMP180;21687;48.900;9.188;2022-08-01T14:04:54;98486.00;;;29.30
35582;BMP180;21687;48.900;9.188;2022-08-01T14:07:21;98487.00;;;29.20
35582;BMP180;21687;48.900;9.188;2022-08-01T14:09:47;98477.00;;;28.50
35582;BMP180;21687;48.900;9.188;2022-08-01T14:12:14;98466.00;;;28.90
35582;BMP180;21687;48.900;9.188;2022-08-01T14:14:40;98462.00;;;29.00
35582;BMP180;21687;48.900;9.188;2022-08-01T14:17:06;98454.00;;;29.10
35582;BMP180;21687;48.900;9.188;2022-08-01T14:19:32;98466.00;;;29.40
35582;BMP180;21687;48.900;9.188;2022-08-01T14:21:58;98474.00;;;29.50
35582;BMP180;21687;48.900;9.188;2022-08-01T14:24:25;98460.00;;;29.40
35582;BMP180;21687;48.900;9.188;2022-08-01T14:26:52;98455.00;;;29.30
35582;BMP180;21687;48.900;9.188;2022-08-01T14:29:19;98452.00;;;29.20
35582;BMP180;21687;48.900;9.188;2022-08-01T14:31:45;98458.00;;;29.40
35582;BMP180;21687;48.900;9.188;2022-08-01T14:34:11;98463.00;;;29.10
35582;BMP180;21687;48.900;9.188;2022-08-01T14:36:39;98460.00;;;29.20
35582;BMP180;21687;48.900;9.188;2022-08-01T14:39:05;98463.00;;;29.00
35582;BMP180;21687;48.900;9.188;2022-08-01T14:41:32;98465.00;;;29.30
35582;BMP180;21687;48.900;9.188;2022-08-01T14:43:58;98449.00;;;28.90
35582;BMP180;21687;48.900;9.188;2022-08-01T14:46:25;98464.00;;;28.90
35582;BMP180;21687;48.900;9.188;2022-08-01T14:48:52;98456.00;;;28.80
35582;BMP180;21687;48.900;9.188;2022-08-01T14:51:18;98451.00;;;28.60
35582;BMP180;21687;48.900;9.188;2022-08-01T14:53:44;98457.00;;;28.40
35582;BMP180;21687;48.900;9.188;2022-08-01T14:56:10;98460.00;;;28.20
35582;BMP180;21687;48.900;9.188;2022-08-01T14:58:37;98458.00;;;28.30
35582;BMP180;21687;48.900;9.188;2022-08-01T15:01:03;98460.00;;;28.60
35582;BMP180;21687;48.900;9.188;2022-08-01T15:03:31;98455.00;;;28.90
35582;BMP180;21687;48.900;9.188;2022-08-01T15:06:00;98457.00;;;28.90
35582;BMP180;21687;48.900;9.188;2022-08-01T15:08:27;98451.00;;;28.90
35582;BMP180;21687;48.900;9.188;2022-08-01T15:10:53;98456.00;;;29.00
35582;BMP180;21687;48.900;9.188;2022-08-01T15:13:19;98455.00;;;28.70
35582;BMP180;21687;48.900;9.188;2022-08-01T15:15:46;98461.00;;;28.50
35582;BMP180;21687;48.900;9.188;2022-08-01T15:18:12;98460.00;;;28.50
35582;BMP180;21687;48.900;9.188;2022-08-01T15:20:39;98455.00;;;28.60
35582;BMP180;21687;48.900;9.188;2022-08-01T15:23:05;98467.00;;;28.50
35582;BMP180;21687;48.900;9.188;2022-08-01T15:25:31;98462.00;;;28.30
35582;BMP180;21687;48.900;9.188;2022-08-01T15:27:57;98459.00;;;28.00
35582;BMP180;21687;48.900;9.188;2022-08-01T15:30:24;98456.00;;;27.90
35582;BMP180;21687;48.900;9.188;2022-08-01T15:32:51;98459.00;;;27.80
35582;BMP180;21687;48.900;9.188;2022-08-01T15:35:17;98463.00;;;27.60
35582;BMP180;21687;48.900;9.188;2022-08-01T15:37:43;98471.00;;;27.60
35582;BMP180;21687;48.900;9.188;2022-08-01T15:40:10;98459.00;;;27.50
35582;BMP180;21687;48.900;9.188;2022-08-01T15:42:37;98458.00;;;27.60